createdAt,value
2018-06-04T00:01:26.497Z,90.60
2018-06-04T00:04:01.634Z,90.40
2018-06-04T00:06:36.907Z,90.50
2018-06-04T00:09:11.960Z,90.90
2018-06-04T00:11:46.991Z,91.50
2018-06-04T00:14:22.083Z,91.10
2018-06-04T00:16:57.062Z,91.20
2018-06-04T00:19:32.228Z,91.50
2018-06-04T00:22:07.225Z,91.10
2018-06-04T00:24:43.297Z,91.20
2018-06-04T00:27:18.538Z,91.50
2018-06-04T00:29:53.660Z,91.10
2018-06-04T00:32:28.840Z,91.10
2018-06-04T00:35:03.972Z,91.30
2018-06-04T00:37:39.226Z,91.50
2018-06-04T00:40:14.221Z,91.40
2018-06-04T00:42:49.247Z,91.50
2018-06-04T00:45:24.231Z,91.80
2018-06-04T00:47:59.368Z,91.20
2018-06-04T00:50:34.433Z,91.40
2018-06-04T00:53:09.408Z,91.70
2018-06-04T00:55:56.060Z,90.80
2018-06-04T00:58:31.165Z,91.00
2018-06-04T01:01:06.216Z,91.10
2018-06-04T01:03:41.458Z,91.50
2018-06-04T01:06:16.638Z,91.60
2018-06-04T01:08:51.823Z,91.70
2018-06-04T01:11:26.813Z,91.80
2018-06-04T01:14:01.833Z,91.50
2018-06-04T01:16:37.001Z,91.80
2018-06-04T01:19:12.685Z,92.20
2018-06-04T01:21:47.804Z,92.10
2018-06-04T01:24:22.805Z,91.70
2018-06-04T01:26:58.017Z,91.90
2018-06-04T01:29:33.118Z,92.10
2018-06-04T01:32:08.253Z,92.30
2018-06-04T01:34:43.340Z,92.00
2018-06-04T01:37:18.403Z,92.10
2018-06-04T01:42:28.389Z,92.20
2018-06-04T01:45:03.617Z,92.20
2018-06-04T01:47:38.640Z,92.30
2018-06-04T01:50:13.751Z,92.40
2018-06-04T01:52:48.777Z,92.20
2018-06-04T01:55:23.866Z,92.20
2018-06-04T01:57:59.040Z,92.20
2018-06-04T02:00:34.091Z,92.00
2018-06-04T02:03:09.297Z,92.20
2018-06-04T02:05:44.379Z,92.30
2018-06-04T02:08:19.489Z,92.60
2018-06-04T02:10:54.638Z,92.30
2018-06-04T02:13:29.665Z,92.20
2018-06-04T02:16:04.889Z,92.10
2018-06-04T02:18:40.149Z,92.50
2018-06-04T02:21:15.156Z,92.60
2018-06-04T02:23:50.292Z,92.70
2018-06-04T02:26:25.275Z,92.50
2018-06-04T02:29:00.276Z,92.40
2018-06-04T02:31:35.261Z,92.20
2018-06-04T02:34:10.400Z,92.30
2018-06-04T02:36:45.480Z,92.60
2018-06-04T02:39:20.574Z,92.80
2018-06-04T02:41:55.644Z,93.10
2018-06-04T02:44:30.743Z,93.10
2018-06-04T02:47:05.772Z,93.40
2018-06-04T02:49:40.927Z,93.00
2018-06-04T02:52:16.026Z,93.10
2018-06-04T02:54:51.102Z,93.10
2018-06-04T02:57:26.086Z,93.10
2018-06-04T03:00:01.112Z,93.60
2018-06-04T03:02:36.456Z,93.20
2018-06-04T03:05:11.637Z,93.30
2018-06-04T03:10:21.445Z,93.00
2018-06-04T03:12:56.663Z,93.10
2018-06-04T03:15:31.861Z,93.20
2018-06-04T03:18:06.935Z,93.40
2018-06-04T03:20:42.094Z,93.30
2018-06-04T03:23:17.164Z,93.00
2018-06-04T03:25:52.193Z,93.00
2018-06-04T03:28:27.211Z,93.10
2018-06-04T03:31:02.428Z,93.10
2018-06-04T03:33:37.460Z,93.00
2018-06-04T03:36:12.573Z,92.80
2018-06-04T03:38:47.704Z,92.90
2018-06-04T03:41:22.809Z,92.70
2018-06-04T03:43:57.815Z,93.00
2018-06-04T03:46:32.870Z,92.80
2018-06-04T03:49:07.852Z,93.20
2018-06-04T03:51:42.904Z,92.80
2018-06-04T03:54:18.533Z,92.60
2018-06-04T03:56:53.552Z,93.20
2018-06-04T03:59:28.749Z,92.90
2018-06-04T04:02:03.906Z,92.60
2018-06-04T04:04:39.147Z,92.40
2018-06-04T04:07:14.173Z,92.70
2018-06-04T04:09:49.360Z,92.70
2018-06-04T04:12:24.519Z,93.00
2018-06-04T04:15:00.471Z,92.90
2018-06-04T04:17:35.606Z,92.30
2018-06-04T04:20:10.749Z,91.90
2018-06-04T04:22:45.812Z,92.20
2018-06-04T04:25:20.910Z,92.40
2018-06-04T04:27:56.158Z,92.10
2018-06-04T04:30:31.144Z,91.90
2018-06-04T04:33:06.164Z,90.40
2018-06-04T04:35:41.263Z,88.80
2018-06-04T04:38:16.286Z,87.00
2018-06-04T04:40:51.317Z,84.90
2018-06-04T04:43:26.312Z,83.30
2018-06-04T04:46:01.351Z,81.50
2018-06-04T04:48:36.438Z,82.50
2018-06-04T04:51:11.453Z,81.70
2018-06-04T04:53:46.511Z,80.40
2018-06-04T04:56:21.548Z,78.20
2018-06-04T04:58:56.551Z,76.70
2018-06-04T05:01:31.571Z,78.40
2018-06-04T05:04:06.855Z,76.50
2018-06-04T05:06:42.108Z,74.90
2018-06-04T05:09:17.125Z,73.80
2018-06-04T05:11:52.274Z,73.80
2018-06-04T05:14:27.452Z,76.00
2018-06-04T05:17:02.491Z,81.60
2018-06-04T05:19:37.549Z,80.20
2018-06-04T05:22:12.753Z,80.30
2018-06-04T05:24:47.875Z,80.20
2018-06-04T05:27:23.052Z,81.90
2018-06-04T05:29:58.226Z,82.00
2018-06-04T05:32:33.254Z,82.60
2018-06-04T05:35:08.408Z,83.40
2018-06-04T05:37:43.429Z,84.20
2018-06-04T05:40:18.497Z,83.70
2018-06-04T05:42:53.542Z,83.40
2018-06-04T05:45:28.610Z,82.80
2018-06-04T05:48:03.589Z,81.40
2018-06-04T05:50:38.635Z,84.40
2018-06-04T05:53:15.833Z,85.10
2018-06-04T05:55:51.020Z,84.20
2018-06-04T05:58:26.165Z,84.50
2018-06-04T06:01:01.212Z,84.60
2018-06-04T06:03:36.163Z,83.80
2018-06-04T06:06:11.187Z,83.20
2018-06-04T06:08:46.250Z,81.40
2018-06-04T06:11:21.357Z,81.20
2018-06-04T06:13:56.413Z,82.00
2018-06-04T06:16:31.441Z,80.30
2018-06-04T06:19:06.607Z,81.00
2018-06-04T06:21:41.812Z,81.60
2018-06-04T06:24:16.846Z,81.80
2018-06-04T06:26:51.945Z,81.80
2018-06-04T06:29:27.123Z,84.80
2018-06-04T06:32:02.201Z,84.40
2018-06-04T06:34:37.456Z,85.00
2018-06-04T06:37:12.572Z,85.30
2018-06-04T06:39:48.405Z,85.40
2018-06-04T06:42:23.386Z,85.70
2018-06-04T06:44:58.400Z,85.10
2018-06-04T06:47:33.606Z,85.10
2018-06-04T06:50:08.832Z,83.60
2018-06-04T06:52:43.922Z,83.50
2018-06-04T06:55:19.006Z,83.60
2018-06-04T06:57:53.993Z,84.20
2018-06-04T07:00:29.088Z,84.10
2018-06-04T07:05:38.895Z,85.90
2018-06-04T07:08:13.970Z,85.00
2018-06-04T07:10:49.206Z,85.00
2018-06-04T07:13:24.307Z,81.50
2018-06-04T07:15:59.430Z,83.50
2018-06-04T07:18:34.580Z,84.50
2018-06-04T07:21:09.666Z,82.60
2018-06-04T07:23:44.871Z,82.90
2018-06-04T07:26:19.941Z,83.30
2018-06-04T07:28:54.987Z,83.10
2018-06-04T07:31:29.983Z,83.40
2018-06-04T07:34:05.371Z,82.80
2018-06-04T07:36:40.349Z,82.90
2018-06-04T07:39:15.541Z,82.50
2018-06-04T07:41:50.515Z,81.40
2018-06-04T07:44:25.658Z,80.50
2018-06-04T07:47:00.668Z,81.40
2018-06-04T07:49:35.829Z,80.90
2018-06-04T07:52:10.897Z,81.20
2018-06-04T07:54:46.632Z,81.90
2018-06-04T07:59:56.512Z,78.30
2018-06-04T08:02:31.516Z,77.80
2018-06-04T08:05:06.586Z,76.60
2018-06-04T08:07:41.647Z,73.10
2018-06-04T08:10:16.781Z,73.90
2018-06-04T08:12:51.829Z,73.00
2018-06-04T08:15:26.801Z,72.20
2018-06-04T08:20:36.694Z,69.60
2018-06-04T08:23:11.794Z,69.20
2018-06-04T08:25:46.753Z,68.90
2018-06-04T08:28:21.753Z,68.60
2018-06-04T08:30:56.874Z,68.20
2018-06-04T08:33:31.844Z,68.70
2018-06-04T08:36:06.961Z,68.70
2018-06-04T08:38:42.424Z,69.20
2018-06-04T08:41:17.513Z,69.10
2018-06-04T08:43:52.552Z,68.70
2018-06-04T08:46:27.572Z,68.30
2018-06-04T08:49:02.674Z,68.00
2018-06-04T08:54:12.504Z,68.10
2018-06-04T09:09:36.745Z,66.50
2018-06-04T09:12:11.765Z,65.90
2018-06-04T09:14:46.902Z,66.20
2018-06-04T09:17:21.897Z,66.20
2018-06-04T09:19:57.072Z,65.80
2018-06-04T09:22:32.116Z,65.80
2018-06-04T09:25:07.071Z,66.00
2018-06-04T09:27:42.120Z,66.00
2018-06-04T09:30:17.318Z,66.10
2018-06-04T09:32:52.353Z,66.10
2018-06-04T09:35:27.759Z,65.80
2018-06-04T09:38:03.275Z,65.50
2018-06-04T09:40:38.275Z,65.30
2018-06-04T09:43:13.423Z,65.30
2018-06-04T09:45:48.509Z,65.60
2018-06-04T09:48:23.489Z,65.00
2018-06-04T09:50:58.616Z,64.80
2018-06-04T09:53:33.564Z,64.80
2018-06-04T09:56:08.591Z,64.90
2018-06-04T09:58:43.765Z,65.00
2018-06-04T10:01:18.937Z,64.80
2018-06-04T10:03:53.939Z,64.60
2018-06-04T10:06:28.940Z,64.60
2018-06-04T10:09:06.947Z,64.40
2018-06-04T10:11:41.956Z,64.60
2018-06-04T10:14:17.153Z,64.50
2018-06-04T10:16:52.211Z,64.70
2018-06-04T10:19:27.232Z,64.60
2018-06-04T10:22:02.319Z,64.50
2018-06-04T10:24:37.777Z,64.40
2018-06-04T10:27:12.920Z,64.30
2018-06-04T10:29:47.917Z,64.40
2018-06-04T10:32:23.014Z,64.20
2018-06-04T10:34:58.118Z,64.20
2018-06-04T10:37:33.258Z,64.10
2018-06-04T10:40:08.370Z,64.10
2018-06-04T10:42:43.514Z,64.10
2018-06-04T10:45:18.631Z,64.10
2018-06-04T10:47:53.658Z,63.70
2018-06-04T10:50:28.925Z,63.90
2018-06-04T10:55:38.712Z,63.70
2018-06-04T10:58:13.720Z,63.80
2018-06-04T11:00:49.066Z,63.80
2018-06-04T11:03:24.081Z,63.60
2018-06-04T11:05:59.232Z,63.60
2018-06-04T11:08:34.208Z,63.70
2018-06-04T11:11:09.245Z,63.70
2018-06-04T11:13:44.364Z,63.70
2018-06-04T11:16:19.390Z,64.10
2018-06-04T11:18:54.480Z,64.30
2018-06-04T11:21:29.412Z,64.40
2018-06-04T11:24:04.532Z,63.60
2018-06-04T11:26:39.545Z,62.40
2018-06-04T11:29:14.540Z,63.40
2018-06-04T11:31:49.648Z,62.60
2018-06-04T11:34:24.686Z,63.00
2018-06-04T11:36:59.718Z,62.80
2018-06-04T11:39:34.849Z,62.40
2018-06-04T11:42:10.038Z,61.80
2018-06-04T11:44:45.099Z,62.20
2018-06-04T11:47:20.168Z,62.30
2018-06-04T11:49:55.133Z,60.20
2018-06-04T11:52:30.332Z,60.60
2018-06-04T11:55:05.339Z,60.10
2018-06-04T11:57:40.396Z,61.10
2018-06-04T12:00:15.386Z,61.10
2018-06-04T12:02:50.387Z,59.90
2018-06-04T12:05:25.580Z,61.70
2018-06-04T12:08:00.611Z,60.30
2018-06-04T12:10:35.767Z,60.70
2018-06-04T12:13:10.863Z,60.60
2018-06-04T12:15:45.883Z,60.20
2018-06-04T12:18:20.985Z,63.90
2018-06-04T12:20:56.482Z,61.20
2018-06-04T12:23:31.766Z,60.40
2018-06-04T12:26:06.878Z,61.10
2018-06-04T12:28:42.044Z,62.90
2018-06-04T12:31:17.220Z,63.00
2018-06-04T12:33:52.400Z,64.10
2018-06-04T12:36:27.556Z,60.20
2018-06-04T12:39:02.883Z,60.60
2018-06-04T12:41:38.035Z,62.80
2018-06-04T12:44:13.280Z,62.00
2018-06-04T12:46:48.380Z,60.80
2018-06-04T12:51:58.581Z,62.20
2018-06-04T12:54:33.730Z,61.30
2018-06-04T12:57:08.946Z,60.30
2018-06-04T12:59:44.060Z,60.90
2018-06-04T13:02:19.120Z,61.50
2018-06-04T13:04:54.240Z,62.00
2018-06-04T13:07:29.317Z,58.10
2018-06-04T13:10:04.362Z,59.90
2018-06-04T13:12:39.320Z,58.90
2018-06-04T13:15:14.482Z,58.20
2018-06-04T13:17:49.514Z,61.80
2018-06-04T13:20:28.433Z,60.70
2018-06-04T13:23:03.437Z,59.70
2018-06-04T13:25:38.456Z,59.80
2018-06-04T13:28:13.509Z,62.00
2018-06-04T13:30:48.607Z,60.50
2018-06-04T13:33:23.772Z,61.30
2018-06-04T13:35:58.804Z,63.20
2018-06-04T13:38:33.917Z,62.60
2018-06-04T13:41:09.171Z,61.80
2018-06-04T13:43:48.872Z,60.40
2018-06-04T13:46:23.869Z,61.10
2018-06-04T13:48:58.837Z,61.80
2018-06-04T13:51:33.982Z,60.70
2018-06-04T13:54:09.139Z,60.60
2018-06-04T13:56:44.188Z,61.10
2018-06-04T13:59:19.367Z,62.20
2018-06-04T14:01:54.389Z,58.40
2018-06-04T14:04:29.561Z,59.80
2018-06-04T14:07:04.617Z,59.80
2018-06-04T14:09:39.632Z,61.20
2018-06-04T14:12:14.698Z,60.10
2018-06-04T14:14:49.864Z,60.20
2018-06-04T14:17:24.964Z,59.10
2018-06-04T14:20:03.848Z,59.50
2018-06-04T14:22:39.200Z,60.10
2018-06-04T14:25:14.744Z,60.30
2018-06-04T14:30:24.989Z,60.40
2018-06-04T14:33:02.169Z,60.00
2018-06-04T14:35:37.428Z,60.80
2018-06-04T14:38:12.640Z,60.80
2018-06-04T14:40:47.666Z,59.40
2018-06-04T14:43:22.636Z,59.30
2018-06-04T14:45:58.044Z,60.60
2018-06-04T14:51:07.823Z,58.90
2018-06-04T14:53:43.038Z,59.20
2018-06-04T14:56:18.260Z,58.90
2018-06-04T14:58:58.642Z,59.20
2018-06-04T15:01:33.984Z,58.70
2018-06-04T15:04:09.103Z,58.50
2018-06-04T15:06:44.264Z,59.10
2018-06-04T15:09:19.376Z,58.50
2018-06-04T15:11:54.624Z,56.90
2018-06-04T15:14:29.614Z,56.50
2018-06-04T15:17:04.904Z,58.10
2018-06-04T15:19:39.999Z,57.50
2018-06-04T15:22:16.843Z,57.70
2018-06-04T15:24:52.042Z,58.80
2018-06-04T15:27:30.184Z,57.80
2018-06-04T15:30:05.327Z,58.20
2018-06-04T15:32:40.479Z,58.30
2018-06-04T15:35:15.587Z,58.70
2018-06-04T15:37:50.729Z,59.40
2018-06-04T15:40:25.691Z,59.20
2018-06-04T15:43:00.866Z,59.70
2018-06-04T15:45:35.961Z,58.60
2018-06-04T15:48:11.045Z,59.80
2018-06-04T15:50:46.099Z,58.00
2018-06-04T15:53:21.128Z,58.60
2018-06-04T15:55:56.254Z,58.50
2018-06-04T15:58:31.196Z,58.30
2018-06-04T16:01:06.405Z,59.20
2018-06-04T16:03:41.585Z,58.50
2018-06-04T16:06:16.771Z,59.20
2018-06-04T16:08:51.735Z,59.20
2018-06-04T16:11:26.865Z,60.50
2018-06-04T16:14:02.017Z,62.00
2018-06-04T16:16:37.048Z,60.30
2018-06-04T16:21:46.972Z,60.70
2018-06-04T16:24:22.154Z,60.70
2018-06-04T16:26:57.322Z,60.30
2018-06-04T16:29:32.444Z,61.00
2018-06-04T16:32:07.630Z,59.70
2018-06-04T16:34:42.762Z,61.20
2018-06-04T16:37:17.956Z,59.30
2018-06-04T16:39:52.949Z,60.20
2018-06-04T16:42:28.112Z,59.50
2018-06-04T16:45:03.193Z,59.80
2018-06-04T16:47:38.292Z,59.70
2018-06-04T16:50:13.401Z,59.70
2018-06-04T16:52:48.358Z,60.60
2018-06-04T16:55:23.513Z,62.20
2018-06-04T16:57:59.552Z,61.80
2018-06-04T17:00:34.947Z,60.70
2018-06-04T17:03:10.169Z,61.00
2018-06-04T17:05:45.228Z,61.20
2018-06-04T17:08:20.272Z,61.80
2018-06-04T17:10:55.300Z,62.80
2018-06-04T17:13:30.344Z,63.80
2018-06-04T17:16:05.822Z,63.60
2018-06-04T17:18:40.976Z,64.20
2018-06-04T17:21:16.133Z,63.90
2018-06-04T17:23:51.267Z,65.30
2018-06-04T17:26:26.435Z,63.30
2018-06-04T17:31:36.420Z,62.00
2018-06-04T17:34:11.588Z,63.00
2018-06-04T17:36:46.554Z,64.90
2018-06-04T17:39:21.682Z,63.20
2018-06-04T17:41:56.740Z,64.20
2018-06-04T17:44:31.755Z,64.00
2018-06-04T17:47:06.848Z,64.30
2018-06-04T17:49:42.021Z,64.30
2018-06-04T17:52:17.244Z,64.00
2018-06-04T17:54:52.270Z,64.70
2018-06-04T17:57:27.476Z,65.40
2018-06-04T18:00:02.449Z,64.20
2018-06-04T18:02:37.511Z,64.70
2018-06-04T18:05:12.599Z,63.80
2018-06-04T18:07:47.769Z,66.00
2018-06-04T18:10:22.700Z,66.00
2018-06-04T18:12:57.898Z,66.10
2018-06-04T18:15:32.907Z,65.00
2018-06-04T18:18:08.001Z,66.20
2018-06-04T18:20:43.218Z,64.90
2018-06-04T18:23:18.932Z,65.60
2018-06-04T18:25:54.074Z,66.30
2018-06-04T18:28:29.077Z,68.20
2018-06-04T18:31:04.246Z,67.90
2018-06-04T18:33:39.228Z,68.20
2018-06-04T18:36:14.372Z,68.30
2018-06-04T18:38:49.443Z,67.80
2018-06-04T18:41:25.593Z,67.70
2018-06-04T18:44:00.784Z,68.30
2018-06-04T18:46:35.946Z,68.40
2018-06-04T18:49:11.027Z,69.30
2018-06-04T18:51:46.146Z,69.30
2018-06-04T18:54:21.289Z,69.10
2018-06-04T18:56:56.396Z,70.40
2018-06-04T18:59:31.592Z,69.60
2018-06-04T19:02:06.681Z,70.50
2018-06-04T19:04:41.702Z,70.40
2018-06-04T19:07:16.882Z,71.50
2018-06-04T19:09:52.012Z,70.80
2018-06-04T19:12:27.125Z,70.30
2018-06-04T19:15:02.201Z,71.60
2018-06-04T19:17:37.392Z,71.50
2018-06-04T19:20:12.568Z,70.60
2018-06-04T19:22:47.594Z,71.20
2018-06-04T19:25:22.634Z,73.30
2018-06-04T19:27:58.616Z,72.60
2018-06-04T19:30:33.748Z,73.40
2018-06-04T19:33:08.817Z,73.10
2018-06-04T19:35:44.008Z,73.60
2018-06-04T19:38:19.261Z,74.00
2018-06-04T19:40:54.669Z,74.40
2018-06-04T19:43:29.960Z,74.70
2018-06-04T19:46:05.393Z,75.00
2018-06-04T19:48:40.377Z,74.10
2018-06-04T19:51:15.575Z,76.60
2018-06-04T19:53:50.797Z,75.80
2018-06-04T19:56:25.874Z,75.70
2018-06-04T19:59:00.929Z,74.40
2018-06-04T20:01:35.920Z,75.40
2018-06-04T20:04:10.970Z,73.90
2018-06-04T20:06:46.170Z,73.70
2018-06-04T20:09:21.289Z,74.50
2018-06-04T20:11:56.322Z,76.60
2018-06-04T20:14:31.667Z,76.30
2018-06-04T20:17:06.644Z,75.70
2018-06-04T20:19:41.727Z,75.80
2018-06-04T20:22:16.868Z,76.60
2018-06-04T20:24:52.079Z,76.60
2018-06-04T20:27:27.230Z,78.00
2018-06-04T20:30:02.268Z,76.70
2018-06-04T20:32:37.339Z,76.20
2018-06-04T20:35:12.404Z,77.60
2018-06-04T20:37:47.471Z,79.10
2018-06-04T20:40:22.556Z,79.80
2018-06-04T20:42:57.767Z,79.30
2018-06-04T20:45:32.917Z,78.60
2018-06-04T20:48:08.035Z,79.20
2018-06-04T20:50:43.171Z,78.80
2018-06-04T20:53:18.367Z,78.50
2018-06-04T20:55:53.428Z,79.50
2018-06-04T20:58:28.485Z,79.80
2018-06-04T21:01:03.574Z,78.50
2018-06-04T21:03:38.981Z,79.40
2018-06-04T21:06:14.018Z,78.30
2018-06-04T21:08:49.084Z,78.00
2018-06-04T21:11:24.298Z,77.50
2018-06-04T21:13:59.550Z,78.10
2018-06-04T21:16:34.665Z,79.10
2018-06-04T21:19:09.807Z,78.10
2018-06-04T21:21:45.008Z,80.10
2018-06-04T21:24:20.162Z,79.70
2018-06-04T21:26:55.460Z,79.80
2018-06-04T21:29:30.548Z,79.60
2018-06-04T21:32:05.676Z,78.10
2018-06-04T21:34:40.722Z,79.60
2018-06-04T21:37:15.788Z,78.40
2018-06-04T21:39:50.806Z,79.50
2018-06-04T21:42:25.882Z,79.70
2018-06-04T21:45:00.900Z,77.20
2018-06-04T21:47:35.928Z,78.70
2018-06-04T21:50:11.156Z,80.00
2018-06-04T21:52:46.686Z,79.70
2018-06-04T21:55:21.708Z,81.40
2018-06-04T21:57:56.721Z,80.00
2018-06-04T22:00:31.870Z,78.50
2018-06-04T22:03:06.977Z,77.30
2018-06-04T22:05:41.996Z,78.70
2018-06-04T22:08:17.067Z,79.30
2018-06-04T22:10:52.289Z,80.30
2018-06-04T22:13:27.272Z,79.30
2018-06-04T22:16:02.410Z,78.90
2018-06-04T22:18:37.368Z,79.90
2018-06-04T22:21:12.430Z,79.80
2018-06-04T22:23:47.544Z,77.50
2018-06-04T22:26:22.530Z,77.40
2018-06-04T22:28:57.475Z,78.50
2018-06-04T22:31:32.510Z,77.60
2018-06-04T22:34:07.483Z,78.90
2018-06-04T22:39:17.414Z,79.10
2018-06-04T22:41:52.619Z,80.00
2018-06-04T22:44:27.792Z,79.10
2018-06-04T22:47:02.935Z,80.30
2018-06-04T22:49:38.169Z,81.20
2018-06-04T22:52:13.190Z,81.10
2018-06-04T22:54:48.425Z,81.00
2018-06-04T22:57:23.466Z,81.00
2018-06-04T22:59:58.584Z,81.80
2018-06-04T23:02:33.646Z,80.70
2018-06-04T23:05:08.907Z,79.90
2018-06-04T23:07:43.871Z,81.00
2018-06-04T23:10:18.929Z,79.30
2018-06-04T23:12:53.936Z,80.20
2018-06-04T23:15:28.896Z,81.60
2018-06-04T23:18:03.928Z,83.20
2018-06-04T23:20:39.134Z,82.20
2018-06-04T23:25:48.929Z,82.60
2018-06-04T23:28:24.176Z,82.20
2018-06-04T23:30:59.379Z,81.60
2018-06-04T23:33:35.556Z,82.60
2018-06-04T23:36:10.669Z,82.90
2018-06-04T23:38:45.781Z,83.30
2018-06-04T23:41:21.463Z,83.90
2018-06-04T23:43:56.576Z,85.90
2018-06-04T23:46:31.652Z,85.00
2018-06-04T23:49:06.814Z,85.40
2018-06-04T23:51:41.815Z,83.50
2018-06-04T23:54:16.940Z,82.60
2018-06-04T23:56:51.916Z,85.50
2018-06-04T23:59:26.992Z,84.50
